sensor_id;sensor_type;location;lat;lon;timestamp;pressure;altitude;pressure_sealevel;temperature;humidity
68193;BME280;55012;47.562;18.414;2023-11-19T00:00:34;99799.75;;;1.86;100.00
68193;BME280;55012;47.562;18.414;2023-11-19T00:03:00;99793.84;;;1.89;100.00
68193;BME280;55012;47.562;18.414;2023-11-19T00:05:26;99794.13;;;1.92;100.00
68193;BME280;55012;47.562;18.414;2023-11-19T00:07:53;99784.25;;;1.93;100.00
68193;BME280;55012;47.562;18.414;2023-11-19T00:10:19;99783.69;;;1.96;100.00
68193;BME280;55012;47.562;18.414;2023-11-19T00:12:46;99785.31;;;1.92;100.00
68193;BME280;55012;47.562;18.414;2023-11-19T00:15:16;99793.06;;;1.88;100.00
68193;BME280;55012;47.562;18.414;2023-11-19T00:17:44;99785.84;;;1.89;100.00
68193;BME280;55012;47.562;18.414;2023-11-19T00:20:11;99787.19;;;1.91;100.00
68193;BME280;55012;47.562;18.414;2023-11-19T00:22:37;99790.38;;;1.93;100.00
68193;BME280;55012;47.562;18.414;2023-11-19T00:25:03;99785.03;;;1.93;100.00
68193;BME280;55012;47.562;18.414;2023-11-19T00:27:29;99791.00;;;1.75;100.00
68193;BME280;55012;47.562;18.414;2023-11-19T00:29:54;99785.50;;;1.31;100.00
68193;BME280;55012;47.562;18.414;2023-11-19T00:32:20;99781.03;;;1.11;100.00
68193;BME280;55012;47.562;18.414;2023-11-19T00:34:45;99783.69;;;1.06;100.00
68193;BME280;55012;47.562;18.414;2023-11-19T00:37:13;99791.41;;;1.07;100.00
68193;BME280;55012;47.562;18.414;2023-11-19T00:39:39;99784.47;;;1.11;100.00
68193;BME280;55012;47.562;18.414;2023-11-19T00:42:04;99787.41;;;1.15;100.00
68193;BME280;55012;47.562;18.414;2023-11-19T00:44:30;99784.97;;;1.24;100.00
68193;BME280;55012;47.562;18.414;2023-11-19T00:46:56;99773.25;;;1.30;100.00
68193;BME280;55012;47.562;18.414;2023-11-19T00:49:21;99774.03;;;1.35;100.00
68193;BME280;55012;47.562;18.414;2023-11-19T00:51:47;99781.22;;;1.40;100.00
68193;BME280;55012;47.562;18.414;2023-11-19T00:54:12;99775.34;;;1.43;100.00
68193;BME280;55012;47.562;18.414;2023-11-19T00:56:37;99755.34;;;1.46;100.00
68193;BME280;55012;47.562;18.414;2023-11-19T00:59:03;99763.06;;;1.47;100.00
68193;BME280;55012;47.562;18.414;2023-11-19T01:01:29;99752.41;;;1.47;100.00
68193;BME280;55012;47.562;18.414;2023-11-19T01:03:55;99759.88;;;1.50;100.00
68193;BME280;55012;47.562;18.414;2023-11-19T01:06:32;99761.72;;;1.55;100.00
68193;BME280;55012;47.562;18.414;2023-11-19T01:08:58;99763.59;;;1.54;100.00
68193;BME280;55012;47.562;18.414;2023-11-19T01:11:24;99771.56;;;1.59;100.00
68193;BME280;55012;47.562;18.414;2023-11-19T01:13:51;99769.72;;;1.55;100.00
68193;BME280;55012;47.562;18.414;2023-11-19T01:16:17;99759.03;;;1.55;100.00
68193;BME280;55012;47.562;18.414;2023-11-19T01:18:42;99761.19;;;1.58;100.00
68193;BME280;55012;47.562;18.414;2023-11-19T01:21:08;99756.38;;;1.60;100.00
68193;BME280;55012;47.562;18.414;2023-11-19T01:23:34;99760.06;;;1.64;100.00
68193;BME280;55012;47.562;18.414;2023-11-19T01:25:59;99753.41;;;1.66;100.00
68193;BME280;55012;47.562;18.414;2023-11-19T01:28:25;99750.97;;;1.75;100.00
68193;BME280;55012;47.562;18.414;2023-11-19T01:30:51;99748.28;;;1.80;100.00
68193;BME280;55012;47.562;18.414;2023-11-19T01:33:16;99746.38;;;1.86;100.00
68193;BME280;55012;47.562;18.414;2023-11-19T01:35:42;99736.75;;;1.90;100.00
68193;BME280;55012;47.562;18.414;2023-11-19T01:38:07;99740.47;;;1.94;100.00
68193;BME280;55012;47.562;18.414;2023-11-19T01:40:36;99739.13;;;1.96;100.00
68193;BME280;55012;47.562;18.414;2023-11-19T01:43:02;99736.97;;;1.98;100.00
68193;BME280;55012;47.562;18.414;2023-11-19T01:45:29;99720.94;;;2.04;100.00
68193;BME280;55012;47.562;18.414;2023-11-19T01:48:00;99715.88;;;2.07;100.00
68193;BME280;55012;47.562;18.414;2023-11-19T01:50:29;99707.56;;;2.09;100.00
68193;BME280;55012;47.562;18.414;2023-11-19T01:52:55;99701.16;;;2.10;100.00
68193;BME280;55012;47.562;18.414;2023-11-19T01:55:24;99710.25;;;2.09;100.00
68193;BME280;55012;47.562;18.414;2023-11-19T01:57:52;99711.84;;;2.05;100.00
68193;BME280;55012;47.562;18.414;2023-11-19T02:00:18;99712.38;;;2.07;100.00
68193;BME280;55012;47.562;18.414;2023-11-19T02:02:46;99714.25;;;2.06;100.00
68193;BME280;55012;47.562;18.414;2023-11-19T02:05:11;99717.47;;;2.03;100.00
68193;BME280;55012;47.562;18.414;2023-11-19T02:07:38;99714.28;;;2.01;100.00
68193;BME280;55012;47.562;18.414;2023-11-19T02:10:04;99721.50;;;2.01;100.00
68193;BME280;55012;47.562;18.414;2023-11-19T02:12:31;99723.09;;;2.02;100.00
68193;BME280;55012;47.562;18.414;2023-11-19T02:15:02;99719.13;;;1.99;100.00
68193;BME280;55012;47.562;18.414;2023-11-19T02:17:31;99712.72;;;1.95;100.00
68193;BME280;55012;47.562;18.414;2023-11-19T02:19:57;99705.50;;;1.95;100.00
68193;BME280;55012;47.562;18.414;2023-11-19T02:22:23;99702.84;;;1.95;100.00
68193;BME280;55012;47.562;18.414;2023-11-19T02:24:51;99707.09;;;1.96;100.00
68193;BME280;55012;47.562;18.414;2023-11-19T02:27:54;99711.34;;;1.97;100.00
68193;BME280;55012;47.562;18.414;2023-11-19T02:30:21;99701.47;;;1.98;100.00
68193;BME280;55012;47.562;18.414;2023-11-19T02:32:54;99699.63;;;1.98;100.00
68193;BME280;55012;47.562;18.414;2023-11-19T02:35:22;99680.91;;;2.04;100.00
68193;BME280;55012;47.562;18.414;2023-11-19T02:37:47;99665.16;;;2.07;100.00
68193;BME280;55012;47.562;18.414;2023-11-19T02:40:13;99674.75;;;2.08;100.00
68193;BME280;55012;47.562;18.414;2023-11-19T02:42:39;99672.03;;;2.13;100.00
68193;BME280;55012;47.562;18.414;2023-11-19T02:45:05;99676.25;;;2.19;100.00
68193;BME280;55012;47.562;18.414;2023-11-19T02:47:33;99674.41;;;2.20;100.00
68193;BME280;55012;47.562;18.414;2023-11-19T02:49:59;99669.56;;;2.22;100.00
68193;BME280;55012;47.562;18.414;2023-11-19T02:52:24;99674.38;;;2.25;100.00
68193;BME280;55012;47.562;18.414;2023-11-19T02:54:50;99668.75;;;2.27;100.00
68193;BME280;55012;47.562;18.414;2023-11-19T02:57:16;99657.50;;;2.30;100.00
68193;BME280;55012;47.562;18.414;2023-11-19T02:59:44;99657.56;;;2.24;100.00
68193;BME280;55012;47.562;18.414;2023-11-19T03:02:09;99657.81;;;2.23;100.00
68193;BME280;55012;47.562;18.414;2023-11-19T03:04:41;99664.22;;;2.22;100.00
68193;BME280;55012;47.562;18.414;2023-11-19T03:07:08;99658.09;;;2.21;100.00
68193;BME280;55012;47.562;18.414;2023-11-19T03:09:33;99654.09;;;2.24;100.00
68193;BME280;55012;47.562;18.414;2023-11-19T03:12:01;99664.22;;;2.22;100.00
68193;BME280;55012;47.562;18.414;2023-11-19T03:14:26;99651.69;;;2.22;100.00
68193;BME280;55012;47.562;18.414;2023-11-19T03:16:52;99666.88;;;2.27;100.00
68193;BME280;55012;47.562;18.414;2023-11-19T03:19:18;99650.56;;;2.29;100.00
68193;BME280;55012;47.562;18.414;2023-11-19T03:21:43;99647.66;;;2.25;100.00
68193;BME280;55012;47.562;18.414;2023-11-19T03:24:10;99660.22;;;2.24;100.00
68193;BME280;55012;47.562;18.414;2023-11-19T03:26:35;99656.00;;;2.18;100.00
68193;BME280;55012;47.562;18.414;2023-11-19T03:29:02;99647.19;;;2.18;100.00
68193;BME280;55012;47.562;18.414;2023-11-19T03:31:28;99639.72;;;2.15;100.00
68193;BME280;55012;47.562;18.414;2023-11-19T03:33:54;99622.13;;;2.14;100.00
68193;BME280;55012;47.562;18.414;2023-11-19T03:36:19;99620.25;;;2.14;100.00
68193;BME280;55012;47.562;18.414;2023-11-19T03:38:45;99618.44;;;2.10;100.00
68193;BME280;55012;47.562;18.414;2023-11-19T03:41:14;99606.16;;;2.09;100.00
68193;BME280;55012;47.562;18.414;2023-11-19T03:43:40;99602.41;;;2.10;100.00
68193;BME280;55012;47.562;18.414;2023-11-19T03:46:35;99605.88;;;2.10;100.00
68193;BME280;55012;47.562;18.414;2023-11-19T03:49:01;99600.53;;;2.10;100.00
68193;BME280;55012;47.562;18.414;2023-11-19T03:51:27;99591.25;;;2.08;100.00
68193;BME280;55012;47.562;18.414;2023-11-19T03:53:52;99585.09;;;2.07;100.00
68193;BME280;55012;47.562;18.414;2023-11-19T03:56:18;99584.28;;;2.07;100.00
68193;BME280;55012;47.562;18.414;2023-11-19T03:58:43;99573.66;;;2.02;100.00
68193;BME280;55012;47.562;18.414;2023-11-19T04:01:12;99572.59;;;2.03;100.00
68193;BME280;55012;47.562;18.414;2023-11-19T04:03:38;99584.28;;;2.07;100.00
68193;BME280;55012;47.562;18.414;2023-11-19T04:06:04;99579.81;;;2.02;100.00
68193;BME280;55012;47.562;18.414;2023-11-19T04:08:30;99574.97;;;2.04;100.00
68193;BME280;55012;47.562;18.414;2023-11-19T04:10:55;99569.13;;;2.02;100.00
68193;BME280;55012;47.562;18.414;2023-11-19T04:13:20;99563.28;;;2.00;100.00
68193;BME280;55012;47.562;18.414;2023-11-19T04:15:46;99563.28;;;2.00;100.00
68193;BME280;55012;47.562;18.414;2023-11-19T04:18:11;99560.63;;;2.00;100.00
68193;BME280;55012;47.562;18.414;2023-11-19T04:20:37;99557.66;;;2.02;100.00
68193;BME280;55012;47.562;18.414;2023-11-19T04:23:02;99557.38;;;2.03;100.00
68193;BME280;55012;47.562;18.414;2023-11-19T04:25:28;99553.63;;;2.04;100.00
68193;BME280;55012;47.562;18.414;2023-11-19T04:27:54;99548.81;;;2.06;100.00
68193;BME280;55012;47.562;18.414;2023-11-19T04:30:19;99553.34;;;2.06;100.00
68193;BME280;55012;47.562;18.414;2023-11-19T04:32:45;99564.56;;;2.08;100.00
68193;BME280;55012;47.562;18.414;2023-11-19T04:35:10;99558.94;;;2.09;100.00
68193;BME280;55012;47.562;18.414;2023-11-19T04:37:36;99567.16;;;2.13;100.00
68193;BME280;55012;47.562;18.414;2023-11-19T04:40:03;99562.88;;;2.17;100.00
68193;BME280;55012;47.562;18.414;2023-11-19T04:42:28;99562.06;;;2.16;100.00
68193;BME280;55012;47.562;18.414;2023-11-19T04:44:55;99568.50;;;2.15;100.00
68193;BME280;55012;47.562;18.414;2023-11-19T04:47:20;99563.59;;;2.22;100.00
68193;BME280;55012;47.562;18.414;2023-11-19T04:49:45;99563.84;;;2.26;100.00
68193;BME280;55012;47.562;18.414;2023-11-19T04:52:11;99561.09;;;2.31;100.00
68193;BME280;55012;47.562;18.414;2023-11-19T04:54:46;99560.00;;;2.37;100.00
68193;BME280;55012;47.562;18.414;2023-11-19T04:57:11;99561.03;;;2.41;100.00
68193;BME280;55012;47.562;18.414;2023-11-19T04:59:37;99574.03;;;2.48;100.00
68193;BME280;55012;47.562;18.414;2023-11-19T05:02:03;99573.19;;;2.52;100.00
68193;BME280;55012;47.562;18.414;2023-11-19T05:04:30;99562.47;;;2.58;100.00
68193;BME280;55012;47.562;18.414;2023-11-19T05:06:55;99573.88;;;2.63;100.00
68193;BME280;55012;47.562;18.414;2023-11-19T05:09:21;99562.91;;;2.65;100.00
68193;BME280;55012;47.562;18.414;2023-11-19T05:11:46;99563.72;;;2.65;100.00
68193;BME280;55012;47.562;18.414;2023-11-19T05:14:12;99557.78;;;2.68;100.00
68193;BME280;55012;47.562;18.414;2023-11-19T05:16:40;99554.53;;;2.71;100.00
68193;BME280;55012;47.562;18.414;2023-11-19T05:19:08;99564.38;;;2.76;100.00
68193;BME280;55012;47.562;18.414;2023-11-19T05:21:34;99555.00;;;2.78;100.00
68193;BME280;55012;47.562;18.414;2023-11-19T05:24:01;99558.16;;;2.80;100.00
68193;BME280;55012;47.562;18.414;2023-11-19T05:26:30;99552.78;;;2.86;100.00
68193;BME280;55012;47.562;18.414;2023-11-19T05:28:55;99563.69;;;2.89;100.00
68193;BME280;55012;47.562;18.414;2023-11-19T05:31:21;99552.19;;;2.89;100.00
68193;BME280;55012;47.562;18.414;2023-11-19T05:33:47;99548.47;;;2.90;100.00
68193;BME280;55012;47.562;18.414;2023-11-19T05:36:12;99544.72;;;2.91;100.00
68193;BME280;55012;47.562;18.414;2023-11-19T05:38:38;99548.38;;;2.95;100.00
68193;BME280;55012;47.562;18.414;2023-11-19T05:41:04;99543.84;;;2.95;100.00
68193;BME280;55012;47.562;18.414;2023-11-19T05:43:33;99535.03;;;2.95;100.00
68193;BME280;55012;47.562;18.414;2023-11-19T05:45:59;99542.25;;;2.94;100.00
68193;BME280;55012;47.562;18.414;2023-11-19T05:48:26;99543.53;;;2.97;100.00
68193;BME280;55012;47.562;18.414;2023-11-19T05:50:51;99553.16;;;2.98;100.00
68193;BME280;55012;47.562;18.414;2023-11-19T05:53:17;99546.75;;;2.99;100.00
68193;BME280;55012;47.562;18.414;2023-11-19T05:55:42;99544.00;;;3.04;100.00
68193;BME280;55012;47.562;18.414;2023-11-19T05:58:24;99538.66;;;3.04;100.00
68193;BME280;55012;47.562;18.414;2023-11-19T06:00:51;99551.38;;;3.12;100.00
68193;BME280;55012;47.562;18.414;2023-11-19T06:03:16;99543.28;;;3.17;100.00
68193;BME280;55012;47.562;18.414;2023-11-19T06:05:44;99542.72;;;3.20;100.00
68193;BME280;55012;47.562;18.414;2023-11-19T06:08:11;99546.41;;;3.24;100.00
68193;BME280;55012;47.562;18.414;2023-11-19T06:10:39;99536.41;;;3.30;100.00
68193;BME280;55012;47.562;18.414;2023-11-19T06:13:04;99536.72;;;3.28;100.00
68193;BME280;55012;47.562;18.414;2023-11-19T06:15:30;99536.38;;;3.35;100.00
68193;BME280;55012;47.562;18.414;2023-11-19T06:17:58;99522.50;;;3.33;100.00
68193;BME280;55012;47.562;18.414;2023-11-19T06:20:26;99534.28;;;3.32;100.00
68193;BME280;55012;47.562;18.414;2023-11-19T06:22:54;99536.66;;;3.33;100.00
68193;BME280;55012;47.562;18.414;2023-11-19T06:25:19;99531.50;;;3.37;100.00
68193;BME280;55012;47.562;18.414;2023-11-19T06:27:45;99532.31;;;3.37;100.00
68193;BME280;55012;47.562;18.414;2023-11-19T06:30:10;99532.75;;;3.45;100.00
68193;BME280;55012;47.562;18.414;2023-11-19T06:32:37;99523.25;;;3.52;100.00
68193;BME280;55012;47.562;18.414;2023-11-19T06:35:02;99510.13;;;3.56;100.00
68193;BME280;55012;47.562;18.414;2023-11-19T06:37:30;99515.31;;;3.66;100.00
68193;BME280;55012;47.562;18.414;2023-11-19T06:39:55;99518.97;;;3.70;100.00
68193;BME280;55012;47.562;18.414;2023-11-19T06:42:21;99511.16;;;3.74;100.00
68193;BME280;55012;47.562;18.414;2023-11-19T06:44:46;99501.94;;;3.80;100.00
68193;BME280;55012;47.562;18.414;2023-11-19T06:47:12;99496.81;;;3.83;100.00
68193;BME280;55012;47.562;18.414;2023-11-19T06:49:37;99490.56;;;3.88;100.00
68193;BME280;55012;47.562;18.414;2023-11-19T06:52:03;99486.91;;;3.84;100.00
68193;BME280;55012;47.562;18.414;2023-11-19T06:54:29;99489.09;;;3.82;100.00
68193;BME280;55012;47.562;18.414;2023-11-19T06:56:55;99484.53;;;3.82;100.00
68193;BME280;55012;47.562;18.414;2023-11-19T06:59:21;99490.88;;;3.86;100.00
68193;BME280;55012;47.562;18.414;2023-11-19T07:01:47;99501.59;;;3.86;100.00
68193;BME280;55012;47.562;18.414;2023-11-19T07:04:12;99504.56;;;3.85;100.00
68193;BME280;55012;47.562;18.414;2023-11-19T07:06:38;99502.97;;;3.84;100.00
68193;BME280;55012;47.562;18.414;2023-11-19T07:09:06;99512.09;;;3.83;100.00
68193;BME280;55012;47.562;18.414;2023-11-19T07:11:41;99513.88;;;3.87;100.00
68193;BME280;55012;47.562;18.414;2023-11-19T07:14:08;99524.50;;;3.92;100.00
68193;BME280;55012;47.562;18.414;2023-11-19T07:16:34;99528.75;;;3.93;100.00
68193;BME280;55012;47.562;18.414;2023-11-19T07:19:01;99524.50;;;3.92;100.00
68193;BME280;55012;47.562;18.414;2023-11-19T07:21:26;99534.13;;;3.93;100.00
68193;BME280;55012;47.562;18.414;2023-11-19T07:23:56;99542.06;;;3.99;100.00
68193;BME280;55012;47.562;18.414;2023-11-19T07:26:22;99550.09;;;3.99;100.00
68193;BME280;55012;47.562;18.414;2023-11-19T07:28:51;99548.84;;;4.10;100.00
68193;BME280;55012;47.562;18.414;2023-11-19T07:31:17;99568.28;;;4.15;100.00
68193;BME280;55012;47.562;18.414;2023-11-19T07:33:46;99567.09;;;4.21;100.00
68193;BME280;55012;47.562;18.414;2023-11-19T07:36:13;99572.19;;;4.23;100.00
68193;BME280;55012;47.562;18.414;2023-11-19T07:38:39;99573.16;;;4.27;100.00
68193;BME280;55012;47.562;18.414;2023-11-19T07:41:07;99584.28;;;4.34;100.00
68193;BME280;55012;47.562;18.414;2023-11-19T07:43:38;99587.38;;;4.41;100.00
68193;BME280;55012;47.562;18.414;2023-11-19T07:46:04;99581.72;;;4.43;100.00
68193;BME280;55012;47.562;18.414;2023-11-19T07:48:29;99586.78;;;4.44;100.00
68193;BME280;55012;47.562;18.414;2023-11-19T07:50:55;99592.94;;;4.45;100.00
68193;BME280;55012;47.562;18.414;2023-11-19T07:53:20;99594.53;;;4.46;100.00
68193;BME280;55012;47.562;18.414;2023-11-19T07:55:46;99587.56;;;4.45;100.00
68193;BME280;55012;47.562;18.414;2023-11-19T07:58:11;99586.69;;;4.49;100.00
68193;BME280;55012;47.562;18.414;2023-11-19T08:00:37;99574.72;;;4.47;100.00
68193;BME280;55012;47.562;18.414;2023-11-19T08:03:03;99568.03;;;4.44;100.00
68193;BME280;55012;47.562;18.414;2023-11-19T08:05:31;99566.44;;;4.43;100.00
68193;BME280;55012;47.562;18.414;2023-11-19T08:07:56;99552.66;;;4.36;100.00
68193;BME280;55012;47.562;18.414;2023-11-19T08:10:22;99539.25;;;4.36;100.00
68193;BME280;55012;47.562;18.414;2023-11-19T08:12:48;99540.03;;;4.37;100.00
68193;BME280;55012;47.562;18.414;2023-11-19T08:15:14;99537.59;;;4.40;100.00
68193;BME280;55012;47.562;18.414;2023-11-19T08:17:40;99540.34;;;4.35;100.00
68193;BME280;55012;47.562;18.414;2023-11-19T08:20:06;99533.22;;;4.31;100.00
68193;BME280;55012;47.562;18.414;2023-11-19T08:22:36;99533.09;;;4.36;100.00
68193;BME280;55012;47.562;18.414;2023-11-19T08:25:06;99546.59;;;4.44;100.00
68193;BME280;55012;47.562;18.414;2023-11-19T08:27:32;99537.56;;;4.54;100.00
68193;BME280;55012;47.562;18.414;2023-11-19T08:29:57;99480.81;;;4.66;100.00
68193;BME280;55012;47.562;18.414;2023-11-19T08:32:25;99457.81;;;4.65;100.00
68193;BME280;55012;47.562;18.414;2023-11-19T08:34:50;99480.91;;;4.61;100.00
68193;BME280;55012;47.562;18.414;2023-11-19T08:37:15;99486.50;;;4.64;100.00
68193;BME280;55012;47.562;18.414;2023-11-19T08:39:43;99479.44;;;4.68;100.00
68193;BME280;55012;47.562;18.414;2023-11-19T08:42:09;99473.97;;;4.73;100.00
68193;BME280;55012;47.562;18.414;2023-11-19T08:44:34;99475.94;;;4.82;100.00
68193;BME280;55012;47.562;18.414;2023-11-19T08:47:00;99465.41;;;4.85;100.00
68193;BME280;55012;47.562;18.414;2023-11-19T08:49:25;99475.53;;;4.88;100.00
68193;BME280;55012;47.562;18.414;2023-11-19T08:51:51;99482.06;;;4.96;100.00
68193;BME280;55012;47.562;18.414;2023-11-19T08:54:16;99486.28;;;5.11;100.00
68193;BME280;55012;47.562;18.414;2023-11-19T08:56:42;99484.28;;;5.30;100.00
68193;BME280;55012;47.562;18.414;2023-11-19T08:59:07;99475.84;;;5.45;100.00
68193;BME280;55012;47.562;18.414;2023-11-19T09:01:34;99485.72;;;5.58;100.00
68193;BME280;55012;47.562;18.414;2023-11-19T09:03:59;99473.47;;;5.66;100.00
68193;BME280;55012;47.562;18.414;2023-11-19T09:06:25;99468.78;;;5.72;100.00
68193;BME280;55012;47.562;18.414;2023-11-19T09:08:50;99482.84;;;5.77;100.00
68193;BME280;55012;47.562;18.414;2023-11-19T09:11:16;99483.34;;;5.79;100.00
68193;BME280;55012;47.562;18.414;2023-11-19T09:13:42;99491.41;;;5.79;100.00
68193;BME280;55012;47.562;18.414;2023-11-19T09:16:07;99492.00;;;5.76;100.00
68193;BME280;55012;47.562;18.414;2023-11-19T09:18:34;99491.31;;;5.71;100.00
68193;BME280;55012;47.562;18.414;2023-11-19T09:21:00;99500.00;;;5.68;100.00
68193;BME280;55012;47.562;18.414;2023-11-19T09:23:25;99497.44;;;5.62;100.00
68193;BME280;55012;47.562;18.414;2023-11-19T09:25:53;99495.78;;;5.53;100.00
68193;BME280;55012;47.562;18.414;2023-11-19T09:28:18;99478.53;;;5.45;100.00
68193;BME280;55012;47.562;18.414;2023-11-19T09:30:44;99478.66;;;5.40;100.00
68193;BME280;55012;47.562;18.414;2023-11-19T09:33:10;99482.81;;;5.46;100.00
68193;BME280;55012;47.562;18.414;2023-11-19T09:35:35;99480.47;;;5.53;100.00
68193;BME280;55012;47.562;18.414;2023-11-19T09:38:01;99474.88;;;5.63;100.00
68193;BME280;55012;47.562;18.414;2023-11-19T09:40:30;99462.47;;;5.76;100.00
68193;BME280;55012;47.562;18.414;2023-11-19T09:42:57;99461.88;;;5.79;100.00
68193;BME280;55012;47.562;18.414;2023-11-19T09:45:27;99451.31;;;5.83;100.00
68193;BME280;55012;47.562;18.414;2023-11-19T09:47:55;99456.84;;;5.86;100.00
68193;BME280;55012;47.562;18.414;2023-11-19T09:50:22;99450.63;;;5.77;100.00
68193;BME280;55012;47.562;18.414;2023-11-19T09:52:48;99460.09;;;5.75;100.00
68193;BME280;55012;47.562;18.414;2023-11-19T09:55:14;99467.53;;;5.78;100.00
68193;BME280;55012;47.562;18.414;2023-11-19T09:57:40;99447.78;;;5.74;100.00
68193;BME280;55012;47.562;18.414;2023-11-19T10:00:10;99448.53;;;5.66;100.00
68193;BME280;55012;47.562;18.414;2023-11-19T10:02:37;99432.28;;;5.71;100.00
68193;BME280;55012;47.562;18.414;2023-11-19T10:05:06;99434.38;;;5.74;100.00
68193;BME280;55012;47.562;18.414;2023-11-19T10:07:33;99432.03;;;5.81;100.00
68193;BME280;55012;47.562;18.414;2023-11-19T10:10:00;99427.22;;;5.91;100.00
68193;BME280;55012;47.562;18.414;2023-11-19T10:12:26;99438.16;;;6.04;100.00
68193;BME280;55012;47.562;18.414;2023-11-19T10:14:54;99440.91;;;6.12;100.00
68193;BME280;55012;47.562;18.414;2023-11-19T10:17:21;99434.59;;;6.17;100.00
68193;BME280;55012;47.562;18.414;2023-11-19T10:19:46;99422.13;;;6.21;100.00
68193;BME280;55012;47.562;18.414;2023-11-19T10:22:12;99439.28;;;6.11;100.00
68193;BME280;55012;47.562;18.414;2023-11-19T10:24:40;99425.88;;;6.11;100.00
68193;BME280;55012;47.562;18.414;2023-11-19T10:27:09;99424.91;;;6.07;100.00
68193;BME280;55012;47.562;18.414;2023-11-19T10:29:37;99426.94;;;6.02;100.00
68193;BME280;55012;47.562;18.414;2023-11-19T10:32:03;99422.22;;;6.07;100.00
68193;BME280;55012;47.562;18.414;2023-11-19T10:34:29;99411.66;;;6.11;100.00
68193;BME280;55012;47.562;18.414;2023-11-19T10:36:55;99409.28;;;6.09;100.00
68193;BME280;55012;47.562;18.414;2023-11-19T10:39:21;99400.13;;;6.10;100.00
68193;BME280;55012;47.562;18.414;2023-11-19T10:41:47;99397.59;;;6.05;100.00
68193;BME280;55012;47.562;18.414;2023-11-19T10:44:12;99395.25;;;6.12;100.00
68193;BME280;55012;47.562;18.414;2023-11-19T10:46:41;99409.00;;;6.19;100.00
68193;BME280;55012;47.562;18.414;2023-11-19T10:49:09;99405.34;;;6.15;100.00
68193;BME280;55012;47.562;18.414;2023-11-19T10:51:35;99392.72;;;6.16;100.00
68193;BME280;55012;47.562;18.414;2023-11-19T10:54:04;99388.59;;;6.18;100.00
68193;BME280;55012;47.562;18.414;2023-11-19T10:56:33;99392.28;;;6.23;100.00
68193;BME280;55012;47.562;18.414;2023-11-19T10:59:00;99378.06;;;6.31;100.00
68193;BME280;55012;47.562;18.414;2023-11-19T11:01:39;99369.22;;;6.30;100.00
68193;BME280;55012;47.562;18.414;2023-11-19T11:04:19;99381.06;;;6.29;100.00
68193;BME280;55012;47.562;18.414;2023-11-19T11:06:48;99380.44;;;6.32;100.00
68193;BME280;55012;47.562;18.414;2023-11-19T11:09:14;99379.97;;;6.39;100.00
68193;BME280;55012;47.562;18.414;2023-11-19T11:11:40;99375.06;;;6.32;100.00
68193;BME280;55012;47.562;18.414;2023-11-19T11:14:12;99385.16;;;6.27;100.00
68193;BME280;55012;47.562;18.414;2023-11-19T11:16:41;99384.69;;;6.25;100.00
68193;BME280;55012;47.562;18.414;2023-11-19T11:19:07;99385.00;;;6.23;100.00
68193;BME280;55012;47.562;18.414;2023-11-19T11:21:34;99377.88;;;6.27;100.00
68193;BME280;55012;47.562;18.414;2023-11-19T11:31:59;99362.13;;;6.60;100.00
68193;BME280;55012;47.562;18.414;2023-11-19T11:37:33;99372.41;;;6.58;100.00
68193;BME280;55012;47.562;18.414;2023-11-19T11:40:01;99372.56;;;6.53;100.00
68193;BME280;55012;47.562;18.414;2023-11-19T11:42:34;99377.47;;;6.51;100.00
68193;BME280;55012;47.562;18.414;2023-11-19T11:45:10;99359.78;;;6.59;100.00
68193;BME280;55012;47.562;18.414;2023-11-19T11:50:12;99359.94;;;6.62;100.00
68193;BME280;55012;47.562;18.414;2023-11-19T11:57:56;99351.09;;;6.70;100.00
68193;BME280;55012;47.562;18.414;2023-11-19T12:00:39;99353.59;;;6.67;100.00
68193;BME280;55012;47.562;18.414;2023-11-19T12:03:06;99350.78;;;6.55;100.00
68193;BME280;55012;47.562;18.414;2023-11-19T12:05:33;99350.91;;;6.41;100.00
68193;BME280;55012;47.562;18.414;2023-11-19T12:08:06;99330.16;;;6.24;100.00
68193;BME280;55012;47.562;18.414;2023-11-19T12:10:56;99304.56;;;6.27;100.00
68193;BME280;55012;47.562;18.414;2023-11-19T12:13:42;99311.38;;;6.24;100.00
68193;BME280;55012;47.562;18.414;2023-11-19T12:16:09;99298.06;;;6.19;100.00
68193;BME280;55012;47.562;18.414;2023-11-19T12:18:34;99295.56;;;6.23;100.00
68193;BME280;55012;47.562;18.414;2023-11-19T12:21:01;99286.53;;;6.18;100.00
68193;BME280;55012;47.562;18.414;2023-11-19T12:23:30;99285.41;;;6.11;100.00
68193;BME280;55012;47.562;18.414;2023-11-19T12:25:57;99284.16;;;6.08;100.00
68193;BME280;55012;47.562;18.414;2023-11-19T12:28:23;99286.72;;;6.13;100.00
68193;BME280;55012;47.562;18.414;2023-11-19T12:30:52;99282.44;;;6.12;100.00
68193;BME280;55012;47.562;18.414;2023-11-19T12:33:18;99284.19;;;6.17;100.00
68193;BME280;55012;47.562;18.414;2023-11-19T12:35:46;99278.47;;;6.18;100.00
68193;BME280;55012;47.562;18.414;2023-11-19T12:38:25;99266.81;;;6.23;100.00
68193;BME280;55012;47.562;18.414;2023-11-19T12:41:04;99267.91;;;6.22;100.00
68193;BME280;55012;47.562;18.414;2023-11-19T12:43:29;99258.09;;;6.26;100.00
68193;BME280;55012;47.562;18.414;2023-11-19T12:45:55;99262.38;;;6.27;100.00
68193;BME280;55012;47.562;18.414;2023-11-19T12:48:21;99266.03;;;6.31;100.00
68193;BME280;55012;47.562;18.414;2023-11-19T12:50:57;99247.03;;;6.36;100.00
68193;BME280;55012;47.562;18.414;2023-11-19T12:53:23;99245.13;;;6.37;100.00
68193;BME280;55012;47.562;18.414;2023-11-19T12:55:54;99247.69;;;6.33;100.00
68193;BME280;55012;47.562;18.414;2023-11-19T13:01:06;99259.06;;;6.39;100.00
68193;BME280;55012;47.562;18.414;2023-11-19T13:03:34;99252.28;;;6.41;100.00
68193;BME280;55012;47.562;18.414;2023-11-19T13:06:03;99256.22;;;6.44;100.00
68193;BME280;55012;47.562;18.414;2023-11-19T13:08:36;99251.94;;;6.52;100.00
68193;BME280;55012;47.562;18.414;2023-11-19T13:11:03;99255.09;;;6.54;100.00